createdAt,value
2019-05-19T00:01:53.875Z,100177.00
2019-05-19T00:04:24.003Z,100175.77
2019-05-19T00:06:55.526Z,100173.25
2019-05-19T00:09:25.786Z,100176.05
2019-05-19T00:11:56.852Z,100165.47
2019-05-19T00:14:27.130Z,100163.87
2019-05-19T00:16:58.338Z,100159.94
2019-05-19T00:19:28.570Z,100158.20
2019-05-19T00:21:58.734Z,100161.52
2019-05-19T00:24:28.894Z,100158.85
2019-05-19T00:27:00.162Z,100155.47
2019-05-19T00:29:30.315Z,100152.41
2019-05-19T00:32:00.466Z,100155.58
2019-05-19T00:34:30.767Z,100159.26
2019-05-19T00:37:00.983Z,100157.93
2019-05-19T00:39:31.321Z,100158.92
2019-05-19T00:42:01.432Z,100158.23
2019-05-19T00:44:31.578Z,100157.83
2019-05-19T00:47:01.707Z,100152.77
2019-05-19T00:49:41.046Z,100154.17
2019-05-19T00:52:03.917Z,100147.06
2019-05-19T00:54:34.071Z,100153.07
2019-05-19T00:57:04.820Z,100148.67
2019-05-19T00:59:35.718Z,100147.88
2019-05-19T01:02:05.896Z,100153.34
2019-05-19T01:04:36.049Z,100143.78
2019-05-19T01:07:06.280Z,100149.16
2019-05-19T01:09:36.521Z,100149.58
2019-05-19T01:12:06.680Z,100147.46
2019-05-19T01:14:36.826Z,100142.30
2019-05-19T01:17:06.941Z,100143.01
2019-05-19T01:19:37.216Z,100139.63
2019-05-19T01:22:08.329Z,100131.30
2019-05-19T01:24:38.491Z,100127.83
2019-05-19T01:27:08.597Z,100123.81
2019-05-19T01:29:38.769Z,100125.42
2019-05-19T01:32:08.953Z,100123.81
2019-05-19T01:34:39.113Z,100113.95
2019-05-19T01:37:09.327Z,100120.05
2019-05-19T01:39:39.564Z,100111.23
2019-05-19T01:42:09.739Z,100115.20
2019-05-19T01:44:39.869Z,100121.22
2019-05-19T01:47:09.991Z,100122.27
2019-05-19T01:49:40.130Z,100115.69
2019-05-19T01:52:10.356Z,100117.58
2019-05-19T01:54:40.457Z,100120.23
2019-05-19T01:57:10.607Z,100118.75
2019-05-19T01:59:40.765Z,100114.91
2019-05-19T02:02:10.915Z,100119.42
2019-05-19T02:04:41.067Z,100119.47
2019-05-19T02:07:12.303Z,100113.62
2019-05-19T02:09:42.517Z,100114.41
2019-05-19T02:12:12.871Z,100113.56
2019-05-19T02:14:42.996Z,100112.73
2019-05-19T02:17:14.215Z,100111.98
2019-05-19T02:19:44.338Z,100112.78
2019-05-19T02:22:14.487Z,100116.52
2019-05-19T02:24:44.604Z,100114.91
2019-05-19T02:27:14.827Z,100115.03
2019-05-19T02:29:45.197Z,100111.11
2019-05-19T02:32:15.350Z,100108.92
2019-05-19T02:34:45.468Z,100112.50
2019-05-19T02:37:15.612Z,100117.80
2019-05-19T02:39:45.710Z,100120.88
2019-05-19T02:42:19.101Z,100123.62
2019-05-19T02:44:50.658Z,100126.27
2019-05-19T02:47:22.324Z,100123.73
2019-05-19T02:49:54.914Z,100134.78
2019-05-19T02:52:26.972Z,100134.01
2019-05-19T02:54:58.944Z,100135.93
2019-05-19T02:57:29.680Z,100129.23
2019-05-19T03:00:01.194Z,100126.78
2019-05-19T03:02:31.681Z,100131.30
2019-05-19T03:05:02.001Z,100130.53
2019-05-19T03:07:34.217Z,100132.27
2019-05-19T03:10:04.039Z,100130.41
2019-05-19T03:12:34.223Z,100131.06
2019-05-19T03:15:04.598Z,100137.94
2019-05-19T03:17:34.759Z,100135.22
2019-05-19T03:20:05.007Z,100136.14
2019-05-19T03:22:35.188Z,100136.98
2019-05-19T03:25:05.823Z,100143.25
2019-05-19T03:27:36.050Z,100139.33
2019-05-19T03:30:24.233Z,100131.68
2019-05-19T03:32:58.794Z,100132.16
2019-05-19T03:35:28.936Z,100128.11
2019-05-19T03:37:59.112Z,100133.01
2019-05-19T03:40:29.380Z,100135.10
2019-05-19T03:42:59.527Z,100132.45
2019-05-19T03:45:29.723Z,100125.81
2019-05-19T03:47:59.851Z,100126.64
2019-05-19T03:50:30.610Z,100131.95
2019-05-19T03:53:01.127Z,100129.61
2019-05-19T03:55:31.227Z,100135.34
2019-05-19T03:58:01.373Z,100138.30
2019-05-19T04:00:31.510Z,100148.85
2019-05-19T04:03:01.714Z,100149.88
2019-05-19T04:05:31.826Z,100151.27
2019-05-19T04:08:05.633Z,100137.52
2019-05-19T04:10:34.401Z,100140.47
2019-05-19T04:13:04.659Z,100144.27
2019-05-19T04:15:34.968Z,100146.38
2019-05-19T04:18:05.181Z,100144.48
2019-05-19T04:20:35.472Z,100146.19
2019-05-19T04:23:05.789Z,100145.63
2019-05-19T04:25:35.995Z,100155.57
2019-05-19T04:28:06.188Z,100148.16
2019-05-19T04:30:36.384Z,100160.22
2019-05-19T04:33:06.736Z,100159.05
2019-05-19T04:35:36.983Z,100162.82
2019-05-19T04:38:07.256Z,100169.56
2019-05-19T04:40:37.560Z,100169.28
2019-05-19T04:43:07.758Z,100169.44
2019-05-19T04:45:38.021Z,100160.35
2019-05-19T04:48:09.569Z,100169.78
2019-05-19T04:50:40.156Z,100160.62
2019-05-19T04:53:10.396Z,100161.19
2019-05-19T04:55:40.581Z,100158.16
2019-05-19T04:58:10.733Z,100160.55
2019-05-19T05:00:40.913Z,100158.03
2019-05-19T05:03:11.187Z,100161.23
2019-05-19T05:05:41.381Z,100167.11
2019-05-19T05:08:27.936Z,100167.86
2019-05-19T05:10:43.315Z,100169.94
2019-05-19T05:13:13.475Z,100163.28
2019-05-19T05:15:48.060Z,100165.59
2019-05-19T05:18:21.054Z,100163.32
2019-05-19T05:20:51.225Z,100164.19
2019-05-19T05:23:21.431Z,100158.45
2019-05-19T05:25:51.690Z,100164.91
2019-05-19T05:28:23.959Z,100158.72
2019-05-19T05:30:55.906Z,100156.36
2019-05-19T05:33:27.016Z,100156.62
2019-05-19T05:35:57.250Z,100148.59
2019-05-19T05:38:27.485Z,100152.52
2019-05-19T05:40:57.661Z,100155.44
2019-05-19T05:43:27.840Z,100152.84
2019-05-19T05:46:00.378Z,100154.63
2019-05-19T05:48:32.854Z,100149.37
2019-05-19T05:51:04.613Z,100147.03
2019-05-19T05:53:35.631Z,100150.11
2019-05-19T05:56:05.839Z,100147.96
2019-05-19T05:58:36.120Z,100151.14
2019-05-19T06:01:06.307Z,100150.88
2019-05-19T06:03:36.528Z,100143.44
2019-05-19T06:06:06.935Z,100148.27
2019-05-19T06:08:37.331Z,100150.37
2019-05-19T06:11:09.924Z,100136.91
2019-05-19T06:13:40.241Z,100143.95
2019-05-19T06:16:12.195Z,100141.59
2019-05-19T06:18:42.514Z,100142.27
2019-05-19T06:21:14.291Z,100139.00
2019-05-19T06:23:44.514Z,100137.44
2019-05-19T06:26:14.841Z,100137.69
2019-05-19T06:28:45.078Z,100134.50
2019-05-19T06:31:15.443Z,100141.94
2019-05-19T06:33:48.411Z,100137.94
2019-05-19T06:36:18.595Z,100131.52
2019-05-19T06:38:49.306Z,100132.70
2019-05-19T06:41:21.078Z,100131.33
2019-05-19T06:43:51.480Z,100130.37
2019-05-19T06:46:21.758Z,100137.77
2019-05-19T06:48:52.505Z,100136.52
2019-05-19T06:51:22.681Z,100132.78
2019-05-19T06:53:53.038Z,100127.27
2019-05-19T06:56:23.289Z,100125.48
2019-05-19T06:59:00.844Z,100132.45
2019-05-19T07:01:31.102Z,100130.34
2019-05-19T07:04:01.482Z,100129.06
2019-05-19T07:06:34.182Z,100123.08
2019-05-19T07:09:07.272Z,100123.84
2019-05-19T07:11:40.368Z,100118.28
2019-05-19T07:14:10.543Z,100120.20
2019-05-19T07:16:41.928Z,100120.95
2019-05-19T07:19:12.162Z,100118.86
2019-05-19T07:21:42.336Z,100122.77
2019-05-19T07:24:12.975Z,100119.88
2019-05-19T07:26:44.313Z,100117.64
2019-05-19T07:29:14.630Z,100126.27
2019-05-19T07:31:46.139Z,100123.91
2019-05-19T07:34:16.357Z,100124.03
2019-05-19T07:36:46.598Z,100120.23
2019-05-19T07:39:16.738Z,100118.71
2019-05-19T07:41:49.879Z,100116.58
2019-05-19T07:44:20.068Z,100112.78
2019-05-19T07:46:51.887Z,100114.52
2019-05-19T07:49:22.083Z,100111.98
2019-05-19T07:51:55.276Z,100114.26
2019-05-19T07:54:26.806Z,100109.61
2019-05-19T07:56:56.979Z,100105.41
2019-05-19T07:59:27.152Z,100111.37
2019-05-19T08:01:57.284Z,100110.84
2019-05-19T08:04:27.817Z,100101.47
2019-05-19T08:07:00.351Z,100107.41
2019-05-19T08:09:32.335Z,100097.08
2019-05-19T08:12:03.145Z,100103.51
2019-05-19T08:14:33.459Z,100100.53
2019-05-19T08:17:03.919Z,100092.52
2019-05-19T08:19:35.910Z,100097.47
2019-05-19T08:22:06.251Z,100086.28
2019-05-19T08:24:37.520Z,100090.38
2019-05-19T08:27:07.687Z,100085.18
2019-05-19T08:29:38.011Z,100088.69
2019-05-19T08:32:08.266Z,100081.10
2019-05-19T08:34:39.641Z,100088.52
2019-05-19T08:37:10.026Z,100089.96
2019-05-19T08:39:47.843Z,100088.28
2019-05-19T08:42:18.059Z,100088.84
2019-05-19T08:44:48.177Z,100090.34
2019-05-19T08:47:20.999Z,100086.09
2019-05-19T08:49:52.699Z,100074.63
2019-05-19T08:52:22.951Z,100076.92
2019-05-19T08:54:53.183Z,100072.23
2019-05-19T08:57:25.689Z,100071.73
2019-05-19T08:59:55.922Z,100067.84
2019-05-19T09:02:26.215Z,100070.36
2019-05-19T09:04:56.373Z,100063.75
2019-05-19T09:07:26.654Z,100069.05
2019-05-19T09:09:56.845Z,100065.97
2019-05-19T09:12:27.008Z,100062.16
2019-05-19T09:14:57.214Z,100062.27
2019-05-19T09:17:27.431Z,100062.06
2019-05-19T09:19:57.567Z,100060.81
2019-05-19T09:22:29.429Z,100051.94
2019-05-19T09:25:01.191Z,100053.27
2019-05-19T09:27:31.413Z,100052.92
2019-05-19T09:30:01.739Z,100042.10
2019-05-19T09:32:32.301Z,100040.32
2019-05-19T09:35:07.365Z,100031.83
2019-05-19T09:37:40.919Z,100026.43
2019-05-19T09:40:12.185Z,100029.91
2019-05-19T09:42:42.362Z,100031.50
2019-05-19T09:45:12.867Z,100021.56
2019-05-19T09:47:43.415Z,100029.88
2019-05-19T09:50:17.340Z,100021.03
2019-05-19T09:52:50.071Z,100026.95
2019-05-19T09:55:19.932Z,100018.09
2019-05-19T09:57:53.231Z,100017.27
2019-05-19T10:00:23.362Z,100016.17
2019-05-19T10:02:53.835Z,100014.75
2019-05-19T10:05:25.335Z,100009.32
2019-05-19T10:07:55.530Z,100002.31
2019-05-19T10:10:48.798Z,100004.23
2019-05-19T10:13:19.037Z,100010.60
2019-05-19T10:15:50.227Z,100013.09
2019-05-19T10:18:27.877Z,100013.64
2019-05-19T10:20:59.961Z,100004.94
2019-05-19T10:23:30.386Z,100004.93
2019-05-19T10:26:00.608Z,100014.35
2019-05-19T10:28:30.814Z,100005.89
2019-05-19T10:31:02.826Z,100002.42
2019-05-19T10:33:35.677Z,100005.51
2019-05-19T10:36:05.924Z,100001.36
2019-05-19T10:38:36.230Z,99998.55
2019-05-19T10:41:06.387Z,99999.53
2019-05-19T10:43:36.773Z,99997.27
2019-05-19T10:46:06.904Z,99992.21
2019-05-19T10:48:37.922Z,100000.68
2019-05-19T10:51:12.830Z,99989.98
2019-05-19T10:53:45.093Z,99995.01
2019-05-19T10:56:18.965Z,99993.72
2019-05-19T10:58:48.391Z,99986.98
2019-05-19T11:01:21.310Z,99981.27
2019-05-19T11:03:59.691Z,99988.38
2019-05-19T11:06:30.488Z,99989.09
2019-05-19T11:09:00.890Z,99985.32
2019-05-19T11:11:32.936Z,99987.20
2019-05-19T11:14:03.365Z,99983.02
2019-05-19T11:16:37.605Z,99981.05
2019-05-19T11:19:07.842Z,99985.42
2019-05-19T11:21:38.057Z,99985.60
2019-05-19T11:24:08.184Z,99986.05
2019-05-19T11:26:38.396Z,99980.63
2019-05-19T11:29:09.001Z,99980.27
2019-05-19T11:31:39.500Z,99981.20
2019-05-19T11:34:11.296Z,99981.98
2019-05-19T11:36:48.513Z,99975.22
2019-05-19T11:39:18.769Z,99973.78
2019-05-19T11:41:49.016Z,99965.68
2019-05-19T11:44:19.458Z,99969.90
2019-05-19T11:46:49.642Z,99955.82
2019-05-19T11:49:29.123Z,99956.44
2019-05-19T11:52:03.199Z,99964.44
2019-05-19T11:54:33.354Z,99953.50
2019-05-19T11:57:03.662Z,99947.28
2019-05-19T11:59:33.930Z,99939.84
2019-05-19T12:02:06.117Z,99945.84
2019-05-19T12:04:40.829Z,99945.53
2019-05-19T12:07:11.986Z,99939.20
2019-05-19T12:09:42.202Z,99943.02
2019-05-19T12:12:12.448Z,99944.95
2019-05-19T12:14:44.283Z,99940.77
2019-05-19T12:17:17.277Z,99944.55
2019-05-19T12:19:48.694Z,99939.05
2019-05-19T12:22:19.682Z,99927.44
2019-05-19T12:24:50.004Z,99929.38
2019-05-19T12:27:20.269Z,99929.98
2019-05-19T12:29:50.660Z,99924.25
2019-05-19T12:32:23.389Z,99926.80
2019-05-19T12:34:58.519Z,99917.62
2019-05-19T12:37:31.665Z,99927.05
2019-05-19T12:40:03.621Z,99927.79
2019-05-19T12:42:35.375Z,99920.40
2019-05-19T12:45:08.355Z,99911.70
2019-05-19T12:47:48.233Z,99904.23
2019-05-19T12:50:27.293Z,99918.93
2019-05-19T12:53:10.530Z,99908.06
2019-05-19T12:55:44.050Z,99915.91
2019-05-19T12:58:14.438Z,99906.42
2019-05-19T13:00:44.839Z,99904.66
2019-05-19T13:03:16.576Z,99894.95
2019-05-19T13:05:51.694Z,99889.48
2019-05-19T13:08:26.350Z,99898.06
2019-05-19T13:11:06.431Z,99898.06
2019-05-19T13:13:37.883Z,99888.09
2019-05-19T13:16:08.243Z,99888.23
2019-05-19T13:18:39.811Z,99888.67
2019-05-19T13:21:11.618Z,99888.67
2019-05-19T13:23:48.752Z,99878.46
2019-05-19T13:26:19.041Z,99883.33
2019-05-19T13:28:49.601Z,99891.81
2019-05-19T13:31:19.935Z,99886.98
2019-05-19T13:33:50.078Z,99878.48
2019-05-19T13:36:22.809Z,99877.66
2019-05-19T13:38:56.587Z,99873.38
2019-05-19T13:41:26.708Z,99879.39
2019-05-19T13:43:59.539Z,99876.11
2019-05-19T13:46:28.697Z,99882.25
2019-05-19T13:48:58.846Z,99880.09
2019-05-19T13:51:28.999Z,99879.20
2019-05-19T13:54:00.026Z,99877.08
2019-05-19T13:56:33.543Z,99867.72
2019-05-19T13:59:03.985Z,99867.72
2019-05-19T14:01:34.256Z,99882.06
2019-05-19T14:04:05.941Z,99874.78
2019-05-19T14:06:39.042Z,99871.44
2019-05-19T14:09:09.540Z,99873.03
2019-05-19T14:11:40.223Z,99869.90
2019-05-19T14:14:10.404Z,99871.91
2019-05-19T14:16:40.622Z,99866.92
2019-05-19T14:19:12.259Z,99876.02
2019-05-19T14:21:44.541Z,99878.69
2019-05-19T14:24:17.614Z,99875.46
2019-05-19T14:26:50.838Z,99869.32
2019-05-19T14:29:21.215Z,99875.28
2019-05-19T14:31:51.418Z,99872.35
2019-05-19T14:34:21.752Z,99864.92
2019-05-19T14:36:54.007Z,99871.22
2019-05-19T14:39:24.781Z,99863.91
2019-05-19T14:41:59.140Z,99871.06
2019-05-19T14:44:33.596Z,99871.58
2019-05-19T14:47:03.747Z,99869.98
2019-05-19T14:49:33.993Z,99872.35
2019-05-19T14:52:04.680Z,99875.80
2019-05-19T14:54:36.385Z,99877.51
2019-05-19T14:57:06.583Z,99877.78
2019-05-19T14:59:36.935Z,99873.55
2019-05-19T15:02:07.094Z,99877.34
2019-05-19T15:04:37.169Z,99870.17
2019-05-19T15:07:07.949Z,99868.00
2019-05-19T15:09:38.057Z,99868.51
2019-05-19T15:12:08.185Z,99873.94
2019-05-19T15:14:38.309Z,99872.15
2019-05-19T15:17:08.411Z,99869.48
2019-05-19T15:19:38.668Z,99864.36
2019-05-19T15:22:08.809Z,99864.05
2019-05-19T15:24:38.967Z,99866.53
2019-05-19T15:27:10.068Z,99867.02
2019-05-19T15:29:40.214Z,99860.97
2019-05-19T15:32:13.767Z,99862.39
2019-05-19T15:34:51.283Z,99864.23
2019-05-19T15:37:21.183Z,99865.79
2019-05-19T15:39:51.448Z,99864.97
2019-05-19T15:42:25.183Z,99859.19
2019-05-19T15:45:07.238Z,99849.80
2019-05-19T15:47:37.813Z,99846.30
2019-05-19T15:50:08.374Z,99837.85
2019-05-19T15:52:42.470Z,99846.22
2019-05-19T15:55:15.830Z,99839.92
2019-05-19T15:57:48.633Z,99846.34
2019-05-19T16:00:20.316Z,99837.59
2019-05-19T16:02:50.490Z,99831.55
2019-05-19T16:05:20.577Z,99830.20
2019-05-19T16:07:50.790Z,99830.25
2019-05-19T16:10:20.999Z,99836.02
2019-05-19T16:12:51.235Z,99826.63
2019-05-19T16:15:22.123Z,99834.91
2019-05-19T16:17:56.656Z,99831.11
2019-05-19T16:20:26.773Z,99829.98
2019-05-19T16:22:58.149Z,99829.07
2019-05-19T16:25:29.755Z,99829.17
2019-05-19T16:28:00.871Z,99824.70
2019-05-19T16:30:31.281Z,99826.47
2019-05-19T16:33:01.413Z,99829.84
2019-05-19T16:35:31.739Z,99829.38
2019-05-19T16:38:03.548Z,99836.71
2019-05-19T16:40:33.833Z,99818.03
2019-05-19T16:43:05.239Z,99828.69
2019-05-19T16:45:35.387Z,99825.37
2019-05-19T16:48:05.769Z,99812.11
2019-05-19T16:50:37.434Z,99812.11
2019-05-19T16:53:10.414Z,99817.80
2019-05-19T16:55:41.706Z,99819.34
2019-05-19T16:58:21.102Z,99819.13
2019-05-19T17:00:44.321Z,99813.83
2019-05-19T17:03:15.885Z,99814.83
2019-05-19T17:05:45.990Z,99818.35
2019-05-19T17:08:18.144Z,99815.92
2019-05-19T17:10:55.664Z,99816.28
2019-05-19T17:13:28.863Z,99818.55
2019-05-19T17:16:02.002Z,99821.13
2019-05-19T17:18:39.718Z,99822.02
2019-05-19T17:21:10.322Z,99822.88
2019-05-19T17:23:40.678Z,99815.89
2019-05-19T17:26:17.399Z,99814.50
2019-05-19T17:28:57.627Z,99812.50
2019-05-19T17:31:16.850Z,99820.53
2019-05-19T17:33:58.928Z,99815.67
2019-05-19T17:36:29.392Z,99820.09
2019-05-19T17:39:34.808Z,99820.66
2019-05-19T17:42:20.932Z,99822.78
2019-05-19T17:44:51.602Z,99815.27
2019-05-19T17:47:22.041Z,99820.84
2019-05-19T17:49:52.562Z,99820.84
2019-05-19T17:52:22.783Z,99826.04
2019-05-19T17:54:53.134Z,99822.55
2019-05-19T17:57:42.185Z,99830.25
2019-05-19T18:00:37.652Z,99827.77
2019-05-19T18:03:12.562Z,99835.28
2019-05-19T18:05:45.205Z,99842.27
2019-05-19T18:08:23.210Z,99836.84
2019-05-19T18:11:10.606Z,99839.94
2019-05-19T18:17:58.575Z,99841.08
2019-05-19T18:20:29.994Z,99846.25
2019-05-19T18:26:44.847Z,99841.84
2019-05-19T18:29:30.480Z,99844.64
2019-05-19T18:31:50.005Z,99838.02
2019-05-19T18:34:20.558Z,99841.00
2019-05-19T18:36:50.905Z,99851.00
2019-05-19T18:39:21.062Z,99848.67
2019-05-19T18:41:51.557Z,99850.94
2019-05-19T18:44:21.789Z,99851.38
2019-05-19T18:46:57.758Z,99858.17
2019-05-19T18:49:29.620Z,99852.80
2019-05-19T18:52:03.313Z,99855.41
2019-05-19T18:54:37.141Z,99861.22
2019-05-19T18:57:08.686Z,99860.84
2019-05-19T18:59:46.901Z,99870.31
2019-05-19T19:02:25.186Z,99863.56
2019-05-19T19:05:02.381Z,99867.25
2019-05-19T19:08:20.694Z,99868.14
2019-05-19T19:10:30.232Z,99869.97
2019-05-19T19:13:00.677Z,99874.98
2019-05-19T19:15:30.846Z,99872.72
2019-05-19T19:18:01.163Z,99875.66
2019-05-19T19:20:31.942Z,99868.53
2019-05-19T19:23:02.899Z,99869.73
2019-05-19T19:25:34.453Z,99869.47
2019-05-19T19:28:04.745Z,99870.66
2019-05-19T19:30:35.088Z,99881.53
2019-05-19T19:33:12.871Z,99883.56
2019-05-19T19:35:44.841Z,99888.05
2019-05-19T19:38:15.077Z,99885.93
2019-05-19T19:40:46.573Z,99891.38
2019-05-19T19:43:16.975Z,99890.08
2019-05-19T19:45:47.429Z,99892.63
2019-05-19T19:48:17.811Z,99896.16
2019-05-19T19:50:55.980Z,99897.44
2019-05-19T19:53:26.386Z,99896.06
2019-05-19T19:55:57.106Z,99903.86
2019-05-19T19:58:27.629Z,99897.64
2019-05-19T20:00:57.958Z,99898.48
2019-05-19T20:03:31.647Z,99895.33
2019-05-19T20:06:02.305Z,99899.09
2019-05-19T20:08:35.443Z,99894.42
2019-05-19T20:11:05.750Z,99897.56
2019-05-19T20:13:35.942Z,99902.02
2019-05-19T20:16:06.335Z,99903.58
2019-05-19T20:18:36.566Z,99910.14
2019-05-19T20:21:07.141Z,99912.83
2019-05-19T20:23:37.602Z,99916.14
2019-05-19T20:26:12.174Z,99914.95
2019-05-19T20:28:47.393Z,99911.58
2019-05-19T20:31:22.757Z,99917.33
2019-05-19T20:33:53.050Z,99918.67
2019-05-19T20:36:23.365Z,99920.59
2019-05-19T20:38:53.577Z,99922.39
2019-05-19T20:41:23.825Z,99924.36
2019-05-19T20:43:54.090Z,99925.42
2019-05-19T20:46:24.340Z,99928.50
2019-05-19T20:48:54.950Z,99930.86
2019-05-19T20:51:25.182Z,99930.43
2019-05-19T20:53:55.472Z,99929.36
2019-05-19T20:56:26.179Z,99929.58
2019-05-19T20:58:56.380Z,99921.83
2019-05-19T21:01:29.324Z,99927.03
2019-05-19T21:04:00.610Z,99924.66
2019-05-19T21:06:30.751Z,99920.19
2019-05-19T21:09:00.894Z,99925.04
2019-05-19T21:11:32.786Z,99919.97
2019-05-19T21:14:02.998Z,99918.84
2019-05-19T21:16:33.289Z,99925.17
2019-05-19T21:19:05.840Z,99921.69
2019-05-19T21:21:36.011Z,99917.45
2019-05-19T21:24:06.230Z,99919.86
2019-05-19T21:26:36.433Z,99924.45
2019-05-19T21:29:07.478Z,99923.37
2019-05-19T21:31:38.591Z,99918.35
2019-05-19T21:34:08.859Z,99925.66
2019-05-19T21:36:39.114Z,99932.20
2019-05-19T21:39:09.500Z,99934.45
2019-05-19T21:41:39.967Z,99935.62
2019-05-19T21:44:10.335Z,99935.88
2019-05-19T21:46:40.515Z,99938.18
2019-05-19T21:49:10.726Z,99932.08
2019-05-19T21:51:40.997Z,99929.40
2019-05-19T21:54:12.316Z,99934.59
2019-05-19T21:56:42.603Z,99934.56
2019-05-19T21:59:12.811Z,99926.63
2019-05-19T22:01:44.877Z,99927.26
2019-05-19T22:04:15.168Z,99930.64
2019-05-19T22:06:52.200Z,99931.70
2019-05-19T22:12:04.775Z,99938.69
2019-05-19T22:14:34.931Z,99947.97
2019-05-19T22:17:10.879Z,99937.20
2019-05-19T22:19:41.091Z,99944.95
2019-05-19T22:22:11.209Z,99945.63
2019-05-19T22:24:41.361Z,99938.12
2019-05-19T22:27:11.519Z,99935.13
2019-05-19T22:29:41.781Z,99939.73
2019-05-19T22:32:12.005Z,99931.23
2019-05-19T22:34:42.286Z,99933.63
2019-05-19T22:37:12.411Z,99938.41
2019-05-19T22:39:43.595Z,99939.55
2019-05-19T22:42:13.755Z,99929.34
2019-05-19T22:44:43.960Z,99937.28
2019-05-19T22:47:14.099Z,99933.17
2019-05-19T22:49:45.243Z,99940.92
2019-05-19T22:52:15.467Z,99938.61
2019-05-19T22:54:45.651Z,99937.27
2019-05-19T22:57:17.980Z,99936.80
2019-05-19T22:59:47.753Z,99937.28
2019-05-19T23:02:17.873Z,99932.89
2019-05-19T23:04:48.032Z,99939.68
2019-05-19T23:07:18.233Z,99933.47
2019-05-19T23:09:48.537Z,99936.80
2019-05-19T23:12:21.509Z,99936.71
2019-05-19T23:14:51.711Z,99934.79
2019-05-19T23:17:21.905Z,99939.78
2019-05-19T23:19:52.073Z,99943.97
2019-05-19T23:22:22.235Z,99943.67
2019-05-19T23:24:52.624Z,99939.75
2019-05-19T23:27:22.792Z,99934.41
2019-05-19T23:29:52.945Z,99938.22
2019-05-19T23:32:26.013Z,99930.94
2019-05-19T23:34:56.117Z,99932.34
2019-05-19T23:37:27.733Z,99931.50
2019-05-19T23:39:57.875Z,99923.27
2019-05-19T23:42:27.999Z,99924.13
2019-05-19T23:44:58.261Z,99925.85
2019-05-19T23:47:28.413Z,99926.89
2019-05-19T23:49:58.736Z,99923.27
2019-05-19T23:52:28.867Z,99920.20
2019-05-19T23:54:59.060Z,99923.63
2019-05-19T23:57:29.234Z,99918.66
2019-05-19T23:59:59.410Z,99927.23
